Terminal Aerodrome Forecast
Issued by NWS Mt. Holly, NJ

Home | Current Version | Previous Version | Text Only | Print | Product List | Glossary On
Versions: 1 2 3 4 5 6 7 8 9 10 11 12 13
000
FTUS41 KPHI 311720
TAFABE
TAF
KABE 311720Z 3118/0118 25005KT P6SM SCT050 BKN150
     FM312300 23003KT P6SM SCT030 OVC050
     FM010300 VRB03KT 3SM -SHRA BKN030 OVC050
     FM010900 VRB02KT 3SM SHRA SCT008 OVC015
     FM011200 36005KT 3SM SHRA BR BKN008 OVC015
     FM011600 36005KT 5SM BR SCT015 OVC025=

USA.gov is the U.S. government's official web portal to all federal, state and local government web resources and services.